createdAt,value
2024-01-26T00:02:01.385Z,83.14
2024-01-26T00:04:34.372Z,83.08
2024-01-26T00:07:07.095Z,83.03
2024-01-26T00:09:40.324Z,83.17
2024-01-26T00:12:14.204Z,83.23
2024-01-26T00:14:46.626Z,83.30
2024-01-26T00:17:19.179Z,83.25
2024-01-26T00:19:51.859Z,83.32
2024-01-26T00:22:24.504Z,83.36
2024-01-26T00:24:57.720Z,83.37
2024-01-26T00:27:30.285Z,83.24
2024-01-26T00:30:03.635Z,83.26
2024-01-26T00:32:36.199Z,83.30
2024-01-26T00:35:09.358Z,83.28
2024-01-26T00:37:42.008Z,83.18
2024-01-26T00:40:15.223Z,83.26
2024-01-26T00:42:48.533Z,83.32
2024-01-26T00:45:22.303Z,83.27
2024-01-26T00:47:55.236Z,83.27
2024-01-26T00:50:28.574Z,83.28
2024-01-26T00:53:01.132Z,83.35
2024-01-26T00:55:34.144Z,83.21
2024-01-26T00:58:07.533Z,83.16
2024-01-26T01:03:13.517Z,83.18
2024-01-26T01:05:46.889Z,83.42
2024-01-26T01:08:19.797Z,83.36
2024-01-26T01:10:52.984Z,83.22
2024-01-26T01:13:26.981Z,83.20
2024-01-26T01:16:01.329Z,83.27
2024-01-26T01:18:34.040Z,83.19
2024-01-26T01:21:07.008Z,83.12
2024-01-26T01:23:40.173Z,83.10
2024-01-26T01:26:13.017Z,83.13
2024-01-26T01:28:45.911Z,83.01
2024-01-26T01:31:18.801Z,83.01
2024-01-26T01:33:51.396Z,83.01
2024-01-26T01:36:24.099Z,82.97
2024-01-26T01:38:57.823Z,82.99
2024-01-26T01:41:30.742Z,82.99
2024-01-26T01:44:03.657Z,82.89
2024-01-26T01:46:36.993Z,82.82
2024-01-26T01:49:09.720Z,82.84
2024-01-26T01:51:45.125Z,82.85
2024-01-26T01:54:20.969Z,82.79
2024-01-26T01:56:58.213Z,82.83
2024-01-26T01:59:32.045Z,82.77
2024-01-26T02:02:05.924Z,82.70
2024-01-26T02:04:39.397Z,82.67
2024-01-26T02:07:12.091Z,82.70
2024-01-26T02:09:45.548Z,82.69
2024-01-26T02:12:18.295Z,82.70
2024-01-26T02:14:50.847Z,82.67
2024-01-26T02:17:25.612Z,82.61
2024-01-26T02:20:00.685Z,82.64
2024-01-26T02:22:34.489Z,82.59
2024-01-26T02:25:09.027Z,82.58
2024-01-26T02:27:42.042Z,82.56
2024-01-26T02:30:15.633Z,82.57
2024-01-26T02:32:48.713Z,82.58
2024-01-26T02:35:21.191Z,82.51
2024-01-26T02:37:54.144Z,82.46
2024-01-26T02:40:26.813Z,82.45
2024-01-26T02:42:59.885Z,82.36
2024-01-26T02:45:33.389Z,82.33
2024-01-26T02:48:06.400Z,82.31
2024-01-26T02:50:39.559Z,82.25
2024-01-26T02:53:12.182Z,82.16
2024-01-26T02:55:44.838Z,82.03
2024-01-26T02:58:18.655Z,81.91
2024-01-26T03:00:52.386Z,81.90
2024-01-26T03:03:25.362Z,81.94
2024-01-26T03:05:58.915Z,81.89
2024-01-26T03:08:32.936Z,81.92
2024-01-26T03:11:05.617Z,81.81
2024-01-26T03:13:38.225Z,81.80
2024-01-26T03:16:12.130Z,81.77
2024-01-26T03:18:44.736Z,81.74
2024-01-26T03:21:17.574Z,81.79
2024-01-26T03:23:50.731Z,81.69
2024-01-26T03:26:23.630Z,81.68
2024-01-26T03:28:56.384Z,81.64
2024-01-26T03:31:29.251Z,81.63
2024-01-26T03:34:02.586Z,81.64
2024-01-26T03:36:35.647Z,81.58
2024-01-26T03:39:10.762Z,81.59
2024-01-26T03:41:44.218Z,81.67
2024-01-26T03:44:17.426Z,81.52
2024-01-26T03:46:50.900Z,81.65
2024-01-26T03:49:23.792Z,81.60
2024-01-26T03:51:56.857Z,81.47
2024-01-26T03:54:30.456Z,81.42
2024-01-26T03:57:03.816Z,81.41
2024-01-26T03:59:37.665Z,81.46
2024-01-26T04:02:11.509Z,81.38
2024-01-26T04:04:46.281Z,81.30
2024-01-26T04:07:19.548Z,81.21
2024-01-26T04:09:52.168Z,81.16
2024-01-26T04:12:26.956Z,81.20
2024-01-26T04:15:00.459Z,81.21
2024-01-26T04:17:34.489Z,81.27
2024-01-26T04:20:08.554Z,81.27
2024-01-26T04:22:43.330Z,81.26
2024-01-26T04:25:17.988Z,81.29
2024-01-26T04:27:53.071Z,81.34
2024-01-26T04:30:28.039Z,81.32
2024-01-26T04:33:01.494Z,81.33
2024-01-26T04:35:34.189Z,81.42
2024-01-26T04:38:08.955Z,81.92
2024-01-26T04:40:42.876Z,81.42
2024-01-26T04:43:17.408Z,81.38
2024-01-26T04:45:51.197Z,81.39
2024-01-26T04:48:26.053Z,81.43
2024-01-26T04:50:59.430Z,81.38
2024-01-26T04:53:34.729Z,81.40
2024-01-26T04:56:13.106Z,81.42
2024-01-26T04:58:48.578Z,81.40
2024-01-26T05:01:25.038Z,81.44
2024-01-26T05:03:57.817Z,81.43
2024-01-26T05:06:31.192Z,81.54
2024-01-26T05:09:05.394Z,81.49
2024-01-26T05:11:40.827Z,81.48
2024-01-26T05:14:13.662Z,81.52
2024-01-26T05:16:47.160Z,81.53
2024-01-26T05:19:21.856Z,81.55
2024-01-26T05:21:56.475Z,81.62
2024-01-26T05:24:31.816Z,81.63
2024-01-26T05:27:06.696Z,81.67
2024-01-26T05:29:40.259Z,81.56
2024-01-26T05:32:13.369Z,81.57
2024-01-26T05:34:47.456Z,81.69
2024-01-26T05:37:20.972Z,82.17
2024-01-26T05:39:53.656Z,81.78
2024-01-26T05:42:26.461Z,81.75
2024-01-26T05:44:59.582Z,81.80
2024-01-26T05:47:34.928Z,81.73
2024-01-26T05:50:09.408Z,81.71
2024-01-26T05:52:43.640Z,81.75
2024-01-26T05:55:19.700Z,81.82
2024-01-26T05:57:53.980Z,81.81
2024-01-26T06:00:28.046Z,81.82
2024-01-26T06:03:01.244Z,81.85
2024-01-26T06:05:34.930Z,81.88
2024-01-26T06:08:09.063Z,81.85
2024-01-26T06:10:42.976Z,81.77
2024-01-26T06:13:17.641Z,81.76
2024-01-26T06:15:53.489Z,81.71
2024-01-26T06:18:26.576Z,81.63
2024-01-26T06:21:00.991Z,81.49
2024-01-26T06:23:36.746Z,81.42
2024-01-26T06:26:11.534Z,81.33
2024-01-26T06:28:46.579Z,81.27
2024-01-26T06:31:20.917Z,81.20
2024-01-26T06:33:54.814Z,81.13
2024-01-26T06:36:32.519Z,81.14
2024-01-26T06:39:08.688Z,81.14
2024-01-26T06:41:46.043Z,81.06
2024-01-26T06:44:18.539Z,80.98
2024-01-26T06:46:52.669Z,81.53
2024-01-26T06:49:28.021Z,81.01
2024-01-26T06:52:01.103Z,81.01
2024-01-26T06:54:34.175Z,81.00
2024-01-26T06:57:10.231Z,81.18
2024-01-26T06:59:43.904Z,81.19
2024-01-26T07:02:17.319Z,81.07
2024-01-26T07:04:51.205Z,81.01
2024-01-26T07:07:24.284Z,81.03
2024-01-26T07:09:59.107Z,81.01
2024-01-26T07:12:34.099Z,81.03
2024-01-26T07:15:11.524Z,80.92
2024-01-26T07:17:45.147Z,80.90
2024-01-26T07:20:19.532Z,80.85
2024-01-26T07:22:53.394Z,80.71
2024-01-26T07:25:25.953Z,80.67
2024-01-26T07:27:59.459Z,81.22
2024-01-26T07:30:32.731Z,80.82
2024-01-26T07:33:08.045Z,80.62
2024-01-26T07:35:41.197Z,80.75
2024-01-26T07:38:15.276Z,80.74
2024-01-26T07:40:49.615Z,80.74
2024-01-26T07:43:24.668Z,80.79
2024-01-26T07:45:58.919Z,80.88
2024-01-26T07:48:33.992Z,80.75
2024-01-26T07:51:08.804Z,80.63
2024-01-26T07:53:41.613Z,80.64
2024-01-26T07:56:14.455Z,81.26
2024-01-26T07:58:52.062Z,80.82
2024-01-26T08:01:25.831Z,80.62
2024-01-26T08:03:59.474Z,80.43
2024-01-26T08:06:33.565Z,80.54
2024-01-26T08:09:06.311Z,80.58
2024-01-26T08:11:40.653Z,81.11
2024-01-26T08:14:15.280Z,80.71
2024-01-26T08:16:49.122Z,80.68
2024-01-26T08:19:23.976Z,80.67
2024-01-26T08:21:57.891Z,81.10
2024-01-26T08:24:30.757Z,80.60
2024-01-26T08:27:04.144Z,80.30
2024-01-26T08:29:39.040Z,80.26
2024-01-26T08:32:11.886Z,80.36
2024-01-26T08:34:45.180Z,80.34
2024-01-26T08:37:18.736Z,80.20
2024-01-26T08:39:52.006Z,80.22
2024-01-26T08:42:25.819Z,80.07
2024-01-26T08:44:59.380Z,79.84
2024-01-26T08:47:33.848Z,79.93
2024-01-26T08:50:07.486Z,79.83
2024-01-26T08:52:41.374Z,79.70
2024-01-26T08:55:16.360Z,79.70
2024-01-26T08:57:50.048Z,79.58
2024-01-26T09:00:24.167Z,79.52
2024-01-26T09:02:57.272Z,79.22
2024-01-26T09:05:30.375Z,79.28
2024-01-26T09:08:03.926Z,79.07
2024-01-26T09:10:36.748Z,78.85
2024-01-26T09:13:09.297Z,79.64
2024-01-26T09:15:42.968Z,78.94
2024-01-26T09:18:16.746Z,78.87
2024-01-26T09:20:54.963Z,78.83
2024-01-26T09:23:27.997Z,78.67
2024-01-26T09:26:01.683Z,78.46
2024-01-26T09:28:36.720Z,78.26
2024-01-26T09:31:11.814Z,77.94
2024-01-26T09:33:45.475Z,77.85
2024-01-26T09:36:20.170Z,77.79
2024-01-26T09:38:52.750Z,77.57
2024-01-26T09:41:27.159Z,78.55
2024-01-26T09:44:00.937Z,77.76
2024-01-26T09:46:35.718Z,77.45
2024-01-26T09:49:11.607Z,77.29
2024-01-26T09:51:44.606Z,78.21
2024-01-26T09:54:21.701Z,77.36
2024-01-26T09:56:56.647Z,77.10
2024-01-26T09:59:29.678Z,76.91
2024-01-26T10:02:03.426Z,76.88
2024-01-26T10:04:36.436Z,76.99
2024-01-26T10:07:09.330Z,76.95
2024-01-26T10:09:44.014Z,76.87
2024-01-26T10:12:17.539Z,76.68
2024-01-26T10:14:52.523Z,76.48
2024-01-26T10:17:34.207Z,76.21
2024-01-26T10:20:19.968Z,77.27
2024-01-26T10:22:55.031Z,76.45
2024-01-26T10:25:28.184Z,76.45
2024-01-26T10:28:05.044Z,76.36
2024-01-26T10:30:41.640Z,76.18
2024-01-26T10:33:16.918Z,75.95
2024-01-26T10:35:52.331Z,75.38
2024-01-26T10:38:26.689Z,75.06
2024-01-26T10:41:07.993Z,75.09
2024-01-26T10:43:44.014Z,75.12
2024-01-26T10:46:18.347Z,75.04
2024-01-26T10:48:54.858Z,74.82
2024-01-26T10:51:29.537Z,74.59
2024-01-26T10:54:12.739Z,74.64
2024-01-26T10:56:47.222Z,74.76
2024-01-26T10:59:21.948Z,74.71
2024-01-26T11:01:56.836Z,75.32
2024-01-26T11:04:32.835Z,74.81
2024-01-26T11:07:08.048Z,74.71
2024-01-26T11:09:48.353Z,74.91
2024-01-26T11:12:27.297Z,75.02
2024-01-26T11:15:19.776Z,74.95
2024-01-26T11:17:59.743Z,74.86
2024-01-26T11:20:36.637Z,74.84
2024-01-26T11:23:15.162Z,74.62
2024-01-26T11:25:54.723Z,74.54
2024-01-26T11:28:31.316Z,74.41
2024-01-26T11:31:05.708Z,74.26
2024-01-26T11:33:39.508Z,74.20
2024-01-26T11:36:14.138Z,75.27
2024-01-26T11:38:49.875Z,74.42
2024-01-26T11:41:25.442Z,74.22
2024-01-26T11:44:03.247Z,73.99
2024-01-26T11:46:38.963Z,73.71
2024-01-26T11:49:11.962Z,73.66
2024-01-26T11:51:46.074Z,73.62
2024-01-26T11:54:21.004Z,73.82
2024-01-26T11:56:52.952Z,73.56
2024-01-26T11:59:26.470Z,74.65
2024-01-26T12:02:00.652Z,73.71
2024-01-26T12:04:34.747Z,73.50
2024-01-26T12:07:09.964Z,73.26
2024-01-26T12:09:45.876Z,73.07
2024-01-26T12:12:20.876Z,73.07
2024-01-26T12:14:53.905Z,73.02
2024-01-26T12:17:26.767Z,72.91
2024-01-26T12:19:59.684Z,72.71
2024-01-26T12:22:36.131Z,72.57
2024-01-26T12:25:11.242Z,72.62
2024-01-26T12:27:45.257Z,72.65
2024-01-26T12:30:24.264Z,72.48
2024-01-26T12:33:09.350Z,73.96
2024-01-26T12:35:43.784Z,72.48
2024-01-26T12:38:20.237Z,72.40
2024-01-26T12:40:53.192Z,72.23
2024-01-26T12:43:26.642Z,72.23
2024-01-26T12:46:00.312Z,72.26
2024-01-26T12:48:34.132Z,72.31
2024-01-26T12:51:08.066Z,72.21
2024-01-26T12:53:41.044Z,72.14
2024-01-26T12:56:14.776Z,72.11
2024-01-26T12:58:47.956Z,72.21
2024-01-26T13:01:22.704Z,72.23
2024-01-26T13:03:56.831Z,72.29
2024-01-26T13:06:29.588Z,72.19
2024-01-26T13:09:02.708Z,72.39
2024-01-26T13:11:37.237Z,72.53
2024-01-26T13:14:10.334Z,72.65
2024-01-26T13:16:44.174Z,72.84
2024-01-26T13:19:19.902Z,73.05
2024-01-26T13:21:53.470Z,73.20
2024-01-26T13:24:27.390Z,73.47
2024-01-26T13:27:07.776Z,73.47
2024-01-26T13:29:36.506Z,73.49
2024-01-26T13:32:10.370Z,73.56
2024-01-26T13:34:46.028Z,73.58
2024-01-26T13:37:19.231Z,73.64
2024-01-26T13:39:52.556Z,73.76
2024-01-26T13:42:27.181Z,73.69
2024-01-26T13:45:01.215Z,73.67
2024-01-26T13:47:36.831Z,73.67
2024-01-26T13:50:11.919Z,73.78
2024-01-26T13:52:45.826Z,73.91
2024-01-26T13:55:20.216Z,73.93
2024-01-26T13:57:53.642Z,73.98
2024-01-26T14:00:28.231Z,74.04
2024-01-26T14:03:02.622Z,74.11
2024-01-26T14:05:37.343Z,74.05
2024-01-26T14:08:10.039Z,74.07
2024-01-26T14:10:42.812Z,75.15
2024-01-26T14:13:15.985Z,74.20
2024-01-26T14:15:49.131Z,74.11
2024-01-26T14:18:23.731Z,74.16
2024-01-26T14:20:59.350Z,74.29
2024-01-26T14:23:33.609Z,74.37
2024-01-26T14:26:12.080Z,74.53
2024-01-26T14:28:48.228Z,74.67
2024-01-26T14:31:23.087Z,74.71
2024-01-26T14:33:57.439Z,74.75
2024-01-26T14:36:31.453Z,74.84
2024-01-26T14:39:06.874Z,74.95
2024-01-26T14:41:40.394Z,74.95
2024-01-26T14:44:13.678Z,75.04
2024-01-26T14:46:48.714Z,75.14
2024-01-26T14:49:22.562Z,75.21
2024-01-26T14:51:57.771Z,75.15
2024-01-26T14:54:31.293Z,75.24
2024-01-26T14:57:04.317Z,75.32
2024-01-26T14:59:39.278Z,75.48
2024-01-26T15:02:13.229Z,75.56
2024-01-26T15:04:46.734Z,75.52
2024-01-26T15:07:20.415Z,76.21
2024-01-26T15:09:55.411Z,75.62
2024-01-26T15:12:30.035Z,75.59
2024-01-26T15:15:04.176Z,75.58
2024-01-26T15:17:39.036Z,75.59
2024-01-26T15:20:13.278Z,75.49
2024-01-26T15:22:49.561Z,75.44
2024-01-26T15:25:25.494Z,75.42
2024-01-26T15:27:58.271Z,75.42
2024-01-26T15:30:31.975Z,75.44
2024-01-26T15:33:07.114Z,75.44
2024-01-26T15:35:40.112Z,75.40
2024-01-26T15:38:13.251Z,76.24
2024-01-26T15:40:48.071Z,75.42
2024-01-26T15:43:21.439Z,75.38
2024-01-26T15:45:56.509Z,75.47
2024-01-26T15:48:31.271Z,75.60
2024-01-26T15:51:06.236Z,75.68
2024-01-26T15:53:39.251Z,75.79
2024-01-26T15:56:13.786Z,75.89
2024-01-26T15:58:48.265Z,76.01
2024-01-26T16:01:22.109Z,75.98
2024-01-26T16:03:55.417Z,75.96
2024-01-26T16:06:30.250Z,75.92
2024-01-26T16:09:04.706Z,75.72
2024-01-26T16:11:37.874Z,75.62
2024-01-26T16:14:13.107Z,75.77
2024-01-26T16:16:49.714Z,75.75
2024-01-26T16:19:23.657Z,75.79
2024-01-26T16:21:57.675Z,75.78
2024-01-26T16:24:31.865Z,75.72
2024-01-26T16:27:05.480Z,75.74
2024-01-26T16:29:39.150Z,75.80
2024-01-26T16:32:12.229Z,75.84
2024-01-26T16:34:46.081Z,75.84
2024-01-26T16:37:19.525Z,75.91
2024-01-26T16:39:54.049Z,75.99
2024-01-26T16:42:27.793Z,76.08
2024-01-26T16:45:01.806Z,76.20
2024-01-26T16:47:35.849Z,76.26
2024-01-26T16:50:09.831Z,76.27
2024-01-26T16:52:43.662Z,76.32
2024-01-26T16:55:17.129Z,76.37
2024-01-26T16:57:50.397Z,76.24
2024-01-26T17:00:25.589Z,76.27
2024-01-26T17:03:01.305Z,76.15
2024-01-26T17:05:36.500Z,76.23
2024-01-26T17:08:10.710Z,76.24
2024-01-26T17:10:45.548Z,76.30
2024-01-26T17:13:21.316Z,76.28
2024-01-26T17:15:55.025Z,76.31
2024-01-26T17:18:28.419Z,76.28
2024-01-26T17:21:02.393Z,76.32
2024-01-26T17:23:37.461Z,76.30
2024-01-26T17:26:11.157Z,76.34
2024-01-26T17:28:45.117Z,76.19
2024-01-26T17:31:19.442Z,76.24
2024-01-26T17:33:55.092Z,76.04
2024-01-26T17:36:29.775Z,75.96
2024-01-26T17:39:03.040Z,76.00
2024-01-26T17:41:37.956Z,76.04
2024-01-26T17:44:11.763Z,76.01
2024-01-26T17:46:49.380Z,76.02
2024-01-26T17:49:24.273Z,76.07
2024-01-26T17:51:59.262Z,76.16
2024-01-26T17:54:33.291Z,76.21
2024-01-26T17:57:08.294Z,76.26
2024-01-26T17:59:45.485Z,76.27
2024-01-26T18:02:23.348Z,76.34
2024-01-26T18:04:57.112Z,76.24
2024-01-26T18:07:33.021Z,76.25
2024-01-26T18:10:07.817Z,76.24
2024-01-26T18:12:43.416Z,76.33
2024-01-26T18:15:21.030Z,76.33
2024-01-26T18:17:54.281Z,76.32
2024-01-26T18:20:26.988Z,76.34
2024-01-26T18:23:00.010Z,76.36
2024-01-26T18:25:33.050Z,76.43
2024-01-26T18:28:07.842Z,76.50
2024-01-26T18:30:40.987Z,76.55
2024-01-26T18:33:14.469Z,76.52
2024-01-26T18:35:47.960Z,76.53
2024-01-26T18:38:22.170Z,76.61
2024-01-26T18:40:54.538Z,76.71
2024-01-26T18:43:27.076Z,77.33
2024-01-26T18:45:59.552Z,76.73
2024-01-26T18:48:33.466Z,76.60
2024-01-26T18:51:06.765Z,76.56
2024-01-26T18:53:39.561Z,76.51
2024-01-26T18:56:13.224Z,76.38
2024-01-26T18:58:46.782Z,76.22
2024-01-26T19:01:20.671Z,76.11
2024-01-26T19:03:54.386Z,76.11
2024-01-26T19:06:28.736Z,76.04
2024-01-26T19:09:02.489Z,75.97
2024-01-26T19:11:35.254Z,75.97
2024-01-26T19:14:08.015Z,75.94
2024-01-26T19:16:41.254Z,75.89
2024-01-26T19:19:16.005Z,75.81
2024-01-26T19:21:49.398Z,75.79
2024-01-26T19:24:24.083Z,75.77
2024-01-26T19:26:58.233Z,75.88
2024-01-26T19:29:32.839Z,75.99
2024-01-26T19:32:05.937Z,76.00
2024-01-26T19:34:39.988Z,76.00
2024-01-26T19:37:13.334Z,75.89
2024-01-26T19:39:47.507Z,75.99
2024-01-26T19:42:21.020Z,76.05
2024-01-26T19:44:53.872Z,75.96
2024-01-26T19:47:26.622Z,75.91
2024-01-26T19:50:00.299Z,75.79
2024-01-26T19:52:33.732Z,75.92
2024-01-26T19:55:07.710Z,75.99
2024-01-26T19:57:43.006Z,76.06
2024-01-26T20:00:18.189Z,76.06
2024-01-26T20:02:51.663Z,76.12
2024-01-26T20:05:24.236Z,76.14
2024-01-26T20:07:57.605Z,76.08
2024-01-26T20:10:30.077Z,76.06
2024-01-26T20:13:02.620Z,76.04
2024-01-26T20:15:35.592Z,76.09
2024-01-26T20:18:09.106Z,76.14
2024-01-26T20:20:42.651Z,76.06
2024-01-26T20:23:16.019Z,76.07
2024-01-26T20:25:50.128Z,76.01
2024-01-26T20:28:23.687Z,75.97
2024-01-26T20:30:56.880Z,75.99
2024-01-26T20:33:30.191Z,76.04
2024-01-26T20:36:04.788Z,76.00
2024-01-26T20:38:38.013Z,76.04
2024-01-26T20:41:11.312Z,75.85
2024-01-26T20:43:44.045Z,75.82
2024-01-26T20:46:18.241Z,75.86
2024-01-26T20:48:52.958Z,75.82
2024-01-26T20:51:26.297Z,75.89
2024-01-26T20:53:59.353Z,75.95
2024-01-26T20:56:53.347Z,76.02
2024-01-26T20:59:26.304Z,76.68
2024-01-26T21:01:59.663Z,76.00
2024-01-26T21:04:32.514Z,75.97
2024-01-26T21:07:07.321Z,76.00
2024-01-26T21:09:41.332Z,75.98
2024-01-26T21:12:13.754Z,75.95
2024-01-26T21:14:47.050Z,76.68
2024-01-26T21:17:19.562Z,76.01
2024-01-26T21:19:52.519Z,75.97
2024-01-26T21:22:25.286Z,75.96
2024-01-26T21:24:57.997Z,75.94
2024-01-26T21:27:30.774Z,75.93
2024-01-26T21:30:03.402Z,75.92
2024-01-26T21:32:35.973Z,75.94
2024-01-26T21:35:10.070Z,75.93
2024-01-26T21:37:45.648Z,75.95
2024-01-26T21:40:18.895Z,75.94
2024-01-26T21:42:52.376Z,76.00
2024-01-26T21:45:25.675Z,76.03
2024-01-26T21:47:58.941Z,76.07
2024-01-26T21:50:31.688Z,76.03
2024-01-26T21:53:05.219Z,76.04
2024-01-26T21:55:40.218Z,76.10
2024-01-26T21:58:14.127Z,76.05
2024-01-26T22:00:47.872Z,76.02
2024-01-26T22:03:20.921Z,76.04
2024-01-26T22:05:54.140Z,76.14
2024-01-26T22:08:27.485Z,76.03
2024-01-26T22:10:59.934Z,76.06
2024-01-26T22:13:33.858Z,76.08
2024-01-26T22:16:07.344Z,76.13
2024-01-26T22:18:40.714Z,76.18
2024-01-26T22:21:13.905Z,76.21
2024-01-26T22:23:47.804Z,76.20
2024-01-26T22:26:22.775Z,76.17
2024-01-26T22:28:59.982Z,76.18
2024-01-26T22:31:32.666Z,76.14
2024-01-26T22:34:06.433Z,76.01
2024-01-26T22:36:39.039Z,75.91
2024-01-26T22:39:12.586Z,75.92
2024-01-26T22:41:46.333Z,75.95
2024-01-26T22:44:19.035Z,75.98
2024-01-26T22:46:51.685Z,75.93
2024-01-26T22:49:24.343Z,75.98
2024-01-26T22:51:57.326Z,76.06
2024-01-26T22:54:30.323Z,76.09
2024-01-26T22:57:03.528Z,76.14
2024-01-26T22:59:38.318Z,76.19
2024-01-26T23:02:11.329Z,76.08
2024-01-26T23:04:43.904Z,76.03
2024-01-26T23:07:16.357Z,76.04
2024-01-26T23:09:49.030Z,76.03
2024-01-26T23:12:21.763Z,75.96
2024-01-26T23:14:54.550Z,75.94
2024-01-26T23:17:27.921Z,75.92
2024-01-26T23:20:00.505Z,75.94
2024-01-26T23:22:34.127Z,75.92
2024-01-26T23:25:08.975Z,75.99
2024-01-26T23:27:41.757Z,75.99
2024-01-26T23:30:15.282Z,75.96
2024-01-26T23:32:48.383Z,76.08
2024-01-26T23:35:21.654Z,76.15
2024-01-26T23:37:57.523Z,76.16
2024-01-26T23:40:30.656Z,76.16
2024-01-26T23:43:03.395Z,76.27
2024-01-26T23:45:35.994Z,76.12
2024-01-26T23:48:14.196Z,76.10
2024-01-26T23:50:46.821Z,75.99
2024-01-26T23:53:19.492Z,75.97
2024-01-26T23:55:52.978Z,75.92
2024-01-26T23:58:26.889Z,75.94
